sensor_id;sensor_type;location;lat;lon;timestamp;pressure;altitude;pressure_sealevel;temperature;humidity
11830;BME280;5972;42.134;24.718;2023-07-22T00:00:50;99430.56;;;26.75;100.00
11830;BME280;5972;42.134;24.718;2023-07-22T00:03:16;99421.28;;;26.69;100.00
11830;BME280;5972;42.134;24.718;2023-07-22T00:05:43;99431.19;;;26.48;100.00
11830;BME280;5972;42.134;24.718;2023-07-22T00:08:10;99421.63;;;26.49;100.00
11830;BME280;5972;42.134;24.718;2023-07-22T00:10:40;99427.63;;;26.48;100.00
11830;BME280;5972;42.134;24.718;2023-07-22T00:13:08;99423.16;;;26.41;100.00
11830;BME280;5972;42.134;24.718;2023-07-22T00:15:35;99417.00;;;26.46;100.00
11830;BME280;5972;42.134;24.718;2023-07-22T00:18:02;99417.78;;;26.47;100.00
11830;BME280;5972;42.134;24.718;2023-07-22T00:20:29;99415.72;;;26.38;100.00
11830;BME280;5972;42.134;24.718;2023-07-22T00:22:56;99431.78;;;26.43;100.00
11830;BME280;5972;42.134;24.718;2023-07-22T00:25:23;99434.88;;;26.45;100.00
11830;BME280;5972;42.134;24.718;2023-07-22T00:27:49;99432.94;;;26.33;100.00
11830;BME280;5972;42.134;24.718;2023-07-22T00:30:18;99427.72;;;26.35;100.00
11830;BME280;5972;42.134;24.718;2023-07-22T00:32:45;99427.72;;;26.35;100.00
11830;BME280;5972;42.134;24.718;2023-07-22T00:35:12;99436.66;;;26.30;100.00
11830;BME280;5972;42.134;24.718;2023-07-22T00:37:39;99443.97;;;26.46;100.00
11830;BME280;5972;42.134;24.718;2023-07-22T00:40:07;99448.31;;;26.47;100.00
11830;BME280;5972;42.134;24.718;2023-07-22T00:42:37;99441.59;;;26.35;100.00
11830;BME280;5972;42.134;24.718;2023-07-22T00:45:05;99441.41;;;26.30;100.00
11830;BME280;5972;42.134;24.718;2023-07-22T00:47:34;99448.06;;;26.20;100.00
11830;BME280;5972;42.134;24.718;2023-07-22T00:50:02;99424.28;;;26.09;100.00
11830;BME280;5972;42.134;24.718;2023-07-22T00:52:29;99447.63;;;26.21;100.00
11830;BME280;5972;42.134;24.718;2023-07-22T00:54:56;99456.72;;;26.22;100.00
11830;BME280;5972;42.134;24.718;2023-07-22T00:57:23;99433.81;;;26.08;100.00
11830;BME280;5972;42.134;24.718;2023-07-22T00:59:50;99464.94;;;26.25;100.00
11830;BME280;5972;42.134;24.718;2023-07-22T01:02:17;99468.09;;;26.36;100.00
11830;BME280;5972;42.134;24.718;2023-07-22T01:04:46;99472.19;;;26.44;100.00
11830;BME280;5972;42.134;24.718;2023-07-22T01:07:13;99469.25;;;26.26;100.00
11830;BME280;5972;42.134;24.718;2023-07-22T01:09:41;99465.66;;;26.38;100.00
11830;BME280;5972;42.134;24.718;2023-07-22T01:12:08;99462.38;;;26.53;100.00
11830;BME280;5972;42.134;24.718;2023-07-22T01:14:37;99463.31;;;26.59;100.00
11830;BME280;5972;42.134;24.718;2023-07-22T01:17:06;99456.81;;;26.53;100.00
11830;BME280;5972;42.134;24.718;2023-07-22T01:19:34;99475.69;;;26.67;100.00
11830;BME280;5972;42.134;24.718;2023-07-22T01:22:05;99471.78;;;26.55;100.00
11830;BME280;5972;42.134;24.718;2023-07-22T01:24:34;99461.97;;;26.63;100.00
11830;BME280;5972;42.134;24.718;2023-07-22T01:27:01;99471.88;;;26.73;100.00
11830;BME280;5972;42.134;24.718;2023-07-22T01:29:34;99472.78;;;26.70;100.00
11830;BME280;5972;42.134;24.718;2023-07-22T01:32:00;99481.41;;;26.63;100.00
11830;BME280;5972;42.134;24.718;2023-07-22T01:34:27;99471.34;;;26.57;100.00
11830;BME280;5972;42.134;24.718;2023-07-22T01:36:55;99476.31;;;26.40;100.00
11830;BME280;5972;42.134;24.718;2023-07-22T01:39:22;99478.50;;;26.45;100.00
11830;BME280;5972;42.134;24.718;2023-07-22T01:41:50;99472.22;;;26.32;100.00
11830;BME280;5972;42.134;24.718;2023-07-22T01:44:16;99484.44;;;26.34;100.00
11830;BME280;5972;42.134;24.718;2023-07-22T01:46:43;99484.47;;;26.22;100.00
11830;BME280;5972;42.134;24.718;2023-07-22T01:49:11;99487.22;;;26.22;100.00
11830;BME280;5972;42.134;24.718;2023-07-22T01:51:38;99481.16;;;26.14;100.00
11830;BME280;5972;42.134;24.718;2023-07-22T01:54:06;99478.66;;;26.07;100.00
11830;BME280;5972;42.134;24.718;2023-07-22T01:56:34;99483.47;;;26.16;100.00
11830;BME280;5972;42.134;24.718;2023-07-22T01:59:02;99486.25;;;26.16;100.00
11830;BME280;5972;42.134;24.718;2023-07-22T02:01:29;99480.47;;;25.88;100.00
11830;BME280;5972;42.134;24.718;2023-07-22T02:03:56;99482.34;;;26.26;100.00
11830;BME280;5972;42.134;24.718;2023-07-22T02:06:23;99484.94;;;26.42;100.00
11830;BME280;5972;42.134;24.718;2023-07-22T02:08:50;99481.47;;;26.51;100.00
11830;BME280;5972;42.134;24.718;2023-07-22T02:11:17;99474.81;;;26.48;100.00
11830;BME280;5972;42.134;24.718;2023-07-22T02:13:44;99496.06;;;26.64;100.00
11830;BME280;5972;42.134;24.718;2023-07-22T02:16:12;99484.94;;;26.64;100.00
11830;BME280;5972;42.134;24.718;2023-07-22T02:18:38;99490.88;;;26.53;100.00
11830;BME280;5972;42.134;24.718;2023-07-22T02:21:05;99490.88;;;26.53;100.00
11830;BME280;5972;42.134;24.718;2023-07-22T02:23:32;99495.19;;;26.54;100.00
11830;BME280;5972;42.134;24.718;2023-07-22T02:25:59;99505.13;;;26.42;100.00
11830;BME280;5972;42.134;24.718;2023-07-22T02:28:26;99508.38;;;26.41;100.00
11830;BME280;5972;42.134;24.718;2023-07-22T02:30:53;99508.50;;;26.37;100.00
11830;BME280;5972;42.134;24.718;2023-07-22T02:33:21;99506.00;;;26.30;100.00
11830;BME280;5972;42.134;24.718;2023-07-22T02:35:48;99485.41;;;26.06;100.00
11830;BME280;5972;42.134;24.718;2023-07-22T02:38:15;99505.03;;;26.12;100.00
11830;BME280;5972;42.134;24.718;2023-07-22T02:40:42;99497.59;;;26.08;100.00
11830;BME280;5972;42.134;24.718;2023-07-22T02:43:09;99483.47;;;25.94;100.00
11830;BME280;5972;42.134;24.718;2023-07-22T02:45:36;99482.59;;;25.84;100.00
11830;BME280;5972;42.134;24.718;2023-07-22T02:48:03;99478.75;;;25.69;100.00
11830;BME280;5972;42.134;24.718;2023-07-22T02:50:32;99489.31;;;25.61;100.00
11830;BME280;5972;42.134;24.718;2023-07-22T02:53:00;99493.31;;;25.60;100.00
11830;BME280;5972;42.134;24.718;2023-07-22T02:55:27;99494.19;;;25.57;100.00
11830;BME280;5972;42.134;24.718;2023-07-22T02:57:54;99480.34;;;25.57;100.00
11830;BME280;5972;42.134;24.718;2023-07-22T03:00:21;99471.25;;;25.44;100.00
11830;BME280;5972;42.134;24.718;2023-07-22T03:02:50;99497.41;;;25.56;100.00
11830;BME280;5972;42.134;24.718;2023-07-22T03:05:17;99493.44;;;25.57;100.00
11830;BME280;5972;42.134;24.718;2023-07-22T03:07:45;99497.41;;;25.56;100.00
11830;BME280;5972;42.134;24.718;2023-07-22T03:10:12;99489.50;;;25.54;100.00
11830;BME280;5972;42.134;24.718;2023-07-22T03:12:39;99491.84;;;25.31;100.00
11830;BME280;5972;42.134;24.718;2023-07-22T03:15:06;99476.47;;;25.30;100.00
11830;BME280;5972;42.134;24.718;2023-07-22T03:17:34;99481.56;;;25.56;100.00
11830;BME280;5972;42.134;24.718;2023-07-22T03:20:02;99485.53;;;25.68;100.00
11830;BME280;5972;42.134;24.718;2023-07-22T03:22:31;99479.78;;;25.62;100.00
11830;BME280;5972;42.134;24.718;2023-07-22T03:24:59;99489.94;;;25.53;100.00
11830;BME280;5972;42.134;24.718;2023-07-22T03:27:25;99484.84;;;25.64;100.00
11830;BME280;5972;42.134;24.718;2023-07-22T03:29:52;99481.22;;;25.67;100.00
11830;BME280;5972;42.134;24.718;2023-07-22T03:32:19;99485.44;;;25.93;100.00
11830;BME280;5972;42.134;24.718;2023-07-22T03:34:46;99485.56;;;26.02;100.00
11830;BME280;5972;42.134;24.718;2023-07-22T03:37:12;99495.19;;;25.98;100.00
11830;BME280;5972;42.134;24.718;2023-07-22T03:39:40;99502.66;;;25.88;100.00
11830;BME280;5972;42.134;24.718;2023-07-22T03:42:09;99503.13;;;26.08;100.00
11830;BME280;5972;42.134;24.718;2023-07-22T03:44:35;99506.09;;;26.27;100.00
11830;BME280;5972;42.134;24.718;2023-07-22T03:47:03;99506.50;;;26.60;100.00
11830;BME280;5972;42.134;24.718;2023-07-22T03:49:29;99501.13;;;26.65;100.00
11830;BME280;5972;42.134;24.718;2023-07-22T03:51:56;99504.56;;;26.91;100.00
11830;BME280;5972;42.134;24.718;2023-07-22T03:54:23;99501.13;;;27.18;100.00
11830;BME280;5972;42.134;24.718;2023-07-22T03:56:50;99499.06;;;27.40;100.00
11830;BME280;5972;42.134;24.718;2023-07-22T03:59:18;99500.44;;;27.45;100.00
11830;BME280;5972;42.134;24.718;2023-07-22T04:01:44;99505.78;;;27.61;100.00
11830;BME280;5972;42.134;24.718;2023-07-22T04:04:12;99509.41;;;27.09;100.00
11830;BME280;5972;42.134;24.718;2023-07-22T04:06:39;99498.25;;;27.00;100.00
11830;BME280;5972;42.134;24.718;2023-07-22T04:09:06;99517.56;;;27.34;100.00
11830;BME280;5972;42.134;24.718;2023-07-22T04:11:34;99520.03;;;27.99;100.00
11830;BME280;5972;42.134;24.718;2023-07-22T04:14:00;99521.78;;;28.33;100.00
11830;BME280;5972;42.134;24.718;2023-07-22T04:16:28;99516.47;;;28.90;100.00
11830;BME280;5972;42.134;24.718;2023-07-22T04:18:55;99514.84;;;29.16;96.76
11830;BME280;5972;42.134;24.718;2023-07-22T04:21:22;99517.66;;;29.73;94.06
11830;BME280;5972;42.134;24.718;2023-07-22T04:23:49;99526.50;;;29.71;88.02
11830;BME280;5972;42.134;24.718;2023-07-22T04:26:16;99518.75;;;29.75;87.48
11830;BME280;5972;42.134;24.718;2023-07-22T04:28:43;99521.78;;;30.49;80.21
11830;BME280;5972;42.134;24.718;2023-07-22T04:31:09;99519.22;;;31.89;70.77
11830;BME280;5972;42.134;24.718;2023-07-22T04:33:38;99520.53;;;33.42;61.02
11830;BME280;5972;42.134;24.718;2023-07-22T04:36:07;99520.34;;;34.87;52.82
11830;BME280;5972;42.134;24.718;2023-07-22T04:38:33;99531.31;;;35.46;50.00
11830;BME280;5972;42.134;24.718;2023-07-22T04:41:02;99522.03;;;35.62;48.15
11830;BME280;5972;42.134;24.718;2023-07-22T04:43:30;99531.50;;;35.81;47.52
11830;BME280;5972;42.134;24.718;2023-07-22T04:45:58;99538.84;;;35.96;46.58
11830;BME280;5972;42.134;24.718;2023-07-22T04:48:25;99534.00;;;35.91;46.37
11830;BME280;5972;42.134;24.718;2023-07-22T04:50:53;99523.56;;;35.80;46.81
11830;BME280;5972;42.134;24.718;2023-07-22T04:53:21;99532.81;;;35.69;47.37
11830;BME280;5972;42.134;24.718;2023-07-22T04:55:48;99533.81;;;35.77;47.28
11830;BME280;5972;42.134;24.718;2023-07-22T04:58:14;99541.88;;;36.14;46.24
11830;BME280;5972;42.134;24.718;2023-07-22T05:00:42;99542.75;;;36.50;45.40
11830;BME280;5972;42.134;24.718;2023-07-22T05:03:09;99533.56;;;37.45;42.50
11830;BME280;5972;42.134;24.718;2023-07-22T05:05:35;99535.81;;;38.01;40.65
11830;BME280;5972;42.134;24.718;2023-07-22T05:08:04;99529.25;;;37.87;40.33
11830;BME280;5972;42.134;24.718;2023-07-22T05:10:32;99531.16;;;38.22;39.69
11830;BME280;5972;42.134;24.718;2023-07-22T05:12:59;99524.13;;;38.47;38.55
11830;BME280;5972;42.134;24.718;2023-07-22T05:15:26;99523.50;;;39.89;35.65
11830;BME280;5972;42.134;24.718;2023-07-22T05:17:53;99525.16;;;40.45;34.47
11830;BME280;5972;42.134;24.718;2023-07-22T05:20:19;99534.97;;;40.44;34.78
11830;BME280;5972;42.134;24.718;2023-07-22T05:22:46;99530.56;;;40.90;33.48
11830;BME280;5972;42.134;24.718;2023-07-22T05:25:14;99545.72;;;40.12;34.44
11830;BME280;5972;42.134;24.718;2023-07-22T05:27:41;99536.63;;;40.40;34.42
11830;BME280;5972;42.134;24.718;2023-07-22T05:30:08;99541.97;;;40.77;33.44
11830;BME280;5972;42.134;24.718;2023-07-22T05:32:36;99544.25;;;41.20;32.75
11830;BME280;5972;42.134;24.718;2023-07-22T05:35:03;99546.81;;;40.56;33.63
11830;BME280;5972;42.134;24.718;2023-07-22T05:37:31;99526.69;;;41.01;33.20
11830;BME280;5972;42.134;24.718;2023-07-22T05:39:59;99543.56;;;42.12;31.34
11830;BME280;5972;42.134;24.718;2023-07-22T05:42:27;99536.13;;;42.02;31.17
11830;BME280;5972;42.134;24.718;2023-07-22T05:44:54;99545.47;;;40.91;32.46
11830;BME280;5972;42.134;24.718;2023-07-22T05:47:22;99541.34;;;40.92;32.39
11830;BME280;5972;42.134;24.718;2023-07-22T05:49:48;99537.13;;;38.88;35.60
11830;BME280;5972;42.134;24.718;2023-07-22T05:52:15;99532.34;;;40.46;33.72
11830;BME280;5972;42.134;24.718;2023-07-22T05:54:42;99536.97;;;41.32;32.13
11830;BME280;5972;42.134;24.718;2023-07-22T05:57:09;99526.19;;;40.89;33.00
11830;BME280;5972;42.134;24.718;2023-07-22T05:59:37;99531.19;;;42.53;30.60
11830;BME280;5972;42.134;24.718;2023-07-22T06:02:05;99535.44;;;42.83;30.33
11830;BME280;5972;42.134;24.718;2023-07-22T06:04:32;99534.81;;;42.46;30.53
11830;BME280;5972;42.134;24.718;2023-07-22T06:06:59;99535.47;;;43.21;29.29
11830;BME280;5972;42.134;24.718;2023-07-22T06:09:25;99528.06;;;43.40;29.05
11830;BME280;5972;42.134;24.718;2023-07-22T06:11:52;99532.84;;;43.23;29.02
11830;BME280;5972;42.134;24.718;2023-07-22T06:14:19;99538.75;;;42.36;30.31
11830;BME280;5972;42.134;24.718;2023-07-22T06:16:47;99535.69;;;41.62;31.29
11830;BME280;5972;42.134;24.718;2023-07-22T06:19:14;99517.06;;;40.49;33.30
11830;BME280;5972;42.134;24.718;2023-07-22T06:21:41;99520.44;;;40.48;32.90
11830;BME280;5972;42.134;24.718;2023-07-22T06:24:08;99517.50;;;39.67;33.88
11830;BME280;5972;42.134;24.718;2023-07-22T06:26:35;99521.66;;;36.62;38.65
11830;BME280;5972;42.134;24.718;2023-07-22T06:29:02;99518.97;;;36.35;40.61
11830;BME280;5972;42.134;24.718;2023-07-22T06:31:28;99515.75;;;36.19;41.64
11830;BME280;5972;42.134;24.718;2023-07-22T06:33:57;99527.06;;;36.03;41.93
11830;BME280;5972;42.134;24.718;2023-07-22T06:36:25;99530.03;;;35.36;43.65
11830;BME280;5972;42.134;24.718;2023-07-22T06:38:51;99520.59;;;34.02;49.93
11830;BME280;5972;42.134;24.718;2023-07-22T06:41:18;99516.78;;;35.20;46.51
11830;BME280;5972;42.134;24.718;2023-07-22T06:43:45;99526.13;;;34.55;48.40
11830;BME280;5972;42.134;24.718;2023-07-22T06:46:12;99514.81;;;34.28;50.00
11830;BME280;5972;42.134;24.718;2023-07-22T06:48:38;99519.81;;;34.77;49.32
11830;BME280;5972;42.134;24.718;2023-07-22T06:51:08;99487.28;;;34.37;48.86
11830;BME280;5972;42.134;24.718;2023-07-22T06:53:34;99515.91;;;33.76;52.66
11830;BME280;5972;42.134;24.718;2023-07-22T06:56:01;99520.81;;;33.93;53.34
11830;BME280;5972;42.134;24.718;2023-07-22T06:58:28;99527.91;;;32.83;57.17
11830;BME280;5972;42.134;24.718;2023-07-22T07:00:55;99530.06;;;33.62;54.83
11830;BME280;5972;42.134;24.718;2023-07-22T07:03:22;99538.09;;;31.94;64.60
11830;BME280;5972;42.134;24.718;2023-07-22T07:05:52;99524.66;;;33.16;57.13
11830;BME280;5972;42.134;24.718;2023-07-22T07:08:20;99515.69;;;33.12;57.18
11830;BME280;5972;42.134;24.718;2023-07-22T07:10:48;99512.56;;;33.04;58.25
11830;BME280;5972;42.134;24.718;2023-07-22T07:13:16;99503.78;;;31.23;68.44
11830;BME280;5972;42.134;24.718;2023-07-22T07:15:46;99513.03;;;32.05;66.80
11830;BME280;5972;42.134;24.718;2023-07-22T07:18:15;99517.63;;;31.82;67.87
11830;BME280;5972;42.134;24.718;2023-07-22T07:20:41;99512.31;;;32.04;66.62
11830;BME280;5972;42.134;24.718;2023-07-22T07:23:08;99520.41;;;32.43;62.16
11830;BME280;5972;42.134;24.718;2023-07-22T07:25:36;99515.44;;;32.58;62.16
11830;BME280;5972;42.134;24.718;2023-07-22T07:28:03;99507.72;;;32.73;60.42
11830;BME280;5972;42.134;24.718;2023-07-22T07:30:31;99504.16;;;33.04;58.72
11830;BME280;5972;42.134;24.718;2023-07-22T07:32:57;99498.91;;;32.86;58.84
11830;BME280;5972;42.134;24.718;2023-07-22T07:35:24;99506.97;;;32.52;62.17
11830;BME280;5972;42.134;24.718;2023-07-22T07:37:51;99506.41;;;33.00;60.19
11830;BME280;5972;42.134;24.718;2023-07-22T07:40:18;99503.34;;;32.46;62.70
11830;BME280;5972;42.134;24.718;2023-07-22T07:42:46;99507.25;;;32.29;64.80
11830;BME280;5972;42.134;24.718;2023-07-22T07:45:13;99506.81;;;32.61;62.85
11830;BME280;5972;42.134;24.718;2023-07-22T07:47:40;99509.16;;;31.97;69.44
11830;BME280;5972;42.134;24.718;2023-07-22T07:50:07;99513.38;;;32.33;65.56
11830;BME280;5972;42.134;24.718;2023-07-22T07:52:52;99511.19;;;32.16;65.14
11830;BME280;5972;42.134;24.718;2023-07-22T07:55:19;99524.13;;;32.14;68.03
11830;BME280;5972;42.134;24.718;2023-07-22T07:57:47;99527.53;;;33.21;61.18
11830;BME280;5972;42.134;24.718;2023-07-22T08:00:14;99518.75;;;33.82;55.60
11830;BME280;5972;42.134;24.718;2023-07-22T08:02:41;99523.56;;;34.41;51.85
11830;BME280;5972;42.134;24.718;2023-07-22T08:05:08;99524.59;;;34.49;51.35
11830;BME280;5972;42.134;24.718;2023-07-22T08:07:35;99516.47;;;34.73;51.58
11830;BME280;5972;42.134;24.718;2023-07-22T08:10:04;99523.28;;;34.33;51.96
11830;BME280;5972;42.134;24.718;2023-07-22T08:12:32;99519.44;;;33.34;55.57
11830;BME280;5972;42.134;24.718;2023-07-22T08:15:00;99519.72;;;34.33;52.20
11830;BME280;5972;42.134;24.718;2023-07-22T08:17:27;99522.19;;;32.20;63.17
11830;BME280;5972;42.134;24.718;2023-07-22T08:19:54;99512.50;;;31.81;64.96
11830;BME280;5972;42.134;24.718;2023-07-22T08:22:21;99500.84;;;32.74;60.65
11830;BME280;5972;42.134;24.718;2023-07-22T08:24:47;99502.00;;;33.62;55.32
11830;BME280;5972;42.134;24.718;2023-07-22T08:27:14;99496.78;;;33.80;54.98
11830;BME280;5972;42.134;24.718;2023-07-22T08:29:41;99492.13;;;34.31;52.46
11830;BME280;5972;42.134;24.718;2023-07-22T08:32:09;99493.59;;;34.10;54.00
11830;BME280;5972;42.134;24.718;2023-07-22T08:34:36;99494.25;;;34.86;51.51
11830;BME280;5972;42.134;24.718;2023-07-22T08:37:02;99489.66;;;34.72;50.62
11830;BME280;5972;42.134;24.718;2023-07-22T08:39:29;99485.91;;;34.05;52.38
11830;BME280;5972;42.134;24.718;2023-07-22T08:41:57;99476.84;;;34.66;51.50
11830;BME280;5972;42.134;24.718;2023-07-22T08:44:30;99477.47;;;33.99;52.55
11830;BME280;5972;42.134;24.718;2023-07-22T08:46:59;99475.81;;;34.63;50.53
11830;BME280;5972;42.134;24.718;2023-07-22T08:49:30;99480.41;;;34.49;50.46
11830;BME280;5972;42.134;24.718;2023-07-22T08:51:57;99474.84;;;35.22;48.56
11830;BME280;5972;42.134;24.718;2023-07-22T08:54:26;99476.22;;;35.78;46.01
11830;BME280;5972;42.134;24.718;2023-07-22T08:56:54;99474.13;;;35.84;45.07
11830;BME280;5972;42.134;24.718;2023-07-22T08:59:21;99477.50;;;35.83;45.24
11830;BME280;5972;42.134;24.718;2023-07-22T09:01:48;99471.94;;;35.55;45.46
11830;BME280;5972;42.134;24.718;2023-07-22T09:04:17;99463.31;;;35.20;46.71
11830;BME280;5972;42.134;24.718;2023-07-22T09:06:46;99454.88;;;35.03;48.11
11830;BME280;5972;42.134;24.718;2023-07-22T09:09:13;99457.88;;;35.50;47.10
11830;BME280;5972;42.134;24.718;2023-07-22T09:11:41;99461.47;;;35.39;47.32
11830;BME280;5972;42.134;24.718;2023-07-22T09:14:09;99460.22;;;34.51;49.32
11830;BME280;5972;42.134;24.718;2023-07-22T09:16:36;99460.75;;;34.60;50.00
11830;BME280;5972;42.134;24.718;2023-07-22T09:19:04;99456.63;;;35.39;46.60
11830;BME280;5972;42.134;24.718;2023-07-22T09:21:31;99449.41;;;35.61;46.38
11830;BME280;5972;42.134;24.718;2023-07-22T09:24:02;99460.88;;;35.74;45.17
11830;BME280;5972;42.134;24.718;2023-07-22T09:26:45;99451.91;;;36.33;43.46
11830;BME280;5972;42.134;24.718;2023-07-22T09:29:12;99437.53;;;36.72;42.66
11830;BME280;5972;42.134;24.718;2023-07-22T09:31:48;99446.31;;;36.93;42.10
11830;BME280;5972;42.134;24.718;2023-07-22T09:34:16;99441.81;;;37.33;41.12
11830;BME280;5972;42.134;24.718;2023-07-22T09:36:52;99441.75;;;37.38;40.89
11830;BME280;5972;42.134;24.718;2023-07-22T09:39:22;99435.91;;;37.06;41.36
11830;BME280;5972;42.134;24.718;2023-07-22T09:41:49;99432.84;;;36.45;42.33
11830;BME280;5972;42.134;24.718;2023-07-22T09:44:16;99433.84;;;35.43;45.33
11830;BME280;5972;42.134;24.718;2023-07-22T09:46:46;99420.28;;;36.05;43.88
11830;BME280;5972;42.134;24.718;2023-07-22T09:49:16;99402.19;;;35.26;44.02
11830;BME280;5972;42.134;24.718;2023-07-22T09:51:43;99414.88;;;36.07;42.90
11830;BME280;5972;42.134;24.718;2023-07-22T09:54:26;99410.75;;;36.19;42.63
11830;BME280;5972;42.134;24.718;2023-07-22T09:56:54;99404.41;;;35.50;45.02
11830;BME280;5972;42.134;24.718;2023-07-22T09:59:21;99395.81;;;36.30;42.93
11830;BME280;5972;42.134;24.718;2023-07-22T10:01:49;99393.53;;;36.58;42.23
11830;BME280;5972;42.134;24.718;2023-07-22T10:04:18;99390.31;;;36.78;42.05
11830;BME280;5972;42.134;24.718;2023-07-22T10:06:46;99392.38;;;37.26;41.24
11830;BME280;5972;42.134;24.718;2023-07-22T10:09:15;99382.91;;;37.24;41.15
11830;BME280;5972;42.134;24.718;2023-07-22T10:11:44;99373.31;;;37.32;40.66
11830;BME280;5972;42.134;24.718;2023-07-22T10:14:11;99384.44;;;37.25;40.71
11830;BME280;5972;42.134;24.718;2023-07-22T10:16:40;99373.50;;;36.91;40.96
11830;BME280;5972;42.134;24.718;2023-07-22T10:19:09;99377.81;;;36.68;42.02
11830;BME280;5972;42.134;24.718;2023-07-22T10:21:37;99390.38;;;37.21;40.79
11830;BME280;5972;42.134;24.718;2023-07-22T10:24:05;99380.25;;;37.31;40.56
11830;BME280;5972;42.134;24.718;2023-07-22T10:26:33;99373.00;;;37.60;40.06
11830;BME280;5972;42.134;24.718;2023-07-22T10:29:02;99360.19;;;37.78;39.34
11830;BME280;5972;42.134;24.718;2023-07-22T10:31:30;99368.31;;;38.00;38.79
11830;BME280;5972;42.134;24.718;2023-07-22T10:33:57;99378.75;;;37.49;39.31
11830;BME280;5972;42.134;24.718;2023-07-22T10:36:28;99371.78;;;37.31;40.05
11830;BME280;5972;42.134;24.718;2023-07-22T10:38:56;99356.91;;;37.06;40.48
11830;BME280;5972;42.134;24.718;2023-07-22T10:41:23;99358.22;;;36.81;40.84
11830;BME280;5972;42.134;24.718;2023-07-22T10:43:54;99354.69;;;36.75;41.17
11830;BME280;5972;42.134;24.718;2023-07-22T10:46:33;99331.56;;;36.82;40.01
11830;BME280;5972;42.134;24.718;2023-07-22T10:49:10;99344.25;;;36.94;40.33
11830;BME280;5972;42.134;24.718;2023-07-22T10:51:37;99342.22;;;37.38;38.83
11830;BME280;5972;42.134;24.718;2023-07-22T10:54:11;99340.84;;;37.63;38.48
11830;BME280;5972;42.134;24.718;2023-07-22T10:56:40;99326.13;;;37.89;37.93
11830;BME280;5972;42.134;24.718;2023-07-22T10:59:10;99322.97;;;38.11;36.49
11830;BME280;5972;42.134;24.718;2023-07-22T11:01:38;99328.97;;;38.21;36.94
11830;BME280;5972;42.134;24.718;2023-07-22T11:04:11;99311.41;;;38.41;36.22
11830;BME280;5972;42.134;24.718;2023-07-22T11:06:38;99314.09;;;38.65;36.05
11830;BME280;5972;42.134;24.718;2023-07-22T11:09:05;99320.81;;;38.49;37.33
11830;BME280;5972;42.134;24.718;2023-07-22T11:11:36;99337.72;;;38.04;37.38
11830;BME280;5972;42.134;24.718;2023-07-22T11:14:16;99322.88;;;38.49;36.63
11830;BME280;5972;42.134;24.718;2023-07-22T11:16:46;99304.06;;;38.19;36.87
11830;BME280;5972;42.134;24.718;2023-07-22T11:19:14;99311.25;;;37.70;37.70
11830;BME280;5972;42.134;24.718;2023-07-22T11:21:41;99318.34;;;37.39;38.06
11830;BME280;5972;42.134;24.718;2023-07-22T11:24:08;99315.75;;;37.78;37.71
11830;BME280;5972;42.134;24.718;2023-07-22T11:26:35;99303.31;;;37.50;37.71
11830;BME280;5972;42.134;24.718;2023-07-22T11:29:03;99299.56;;;37.23;37.88
11830;BME280;5972;42.134;24.718;2023-07-22T11:31:33;99296.00;;;37.60;36.78
11830;BME280;5972;42.134;24.718;2023-07-22T11:34:03;99283.09;;;37.64;37.57
11830;BME280;5972;42.134;24.718;2023-07-22T11:36:31;99286.38;;;37.50;38.30
11830;BME280;5972;42.134;24.718;2023-07-22T11:39:02;99284.75;;;37.54;37.51
11830;BME280;5972;42.134;24.718;2023-07-22T11:41:29;99284.63;;;37.97;36.73
11830;BME280;5972;42.134;24.718;2023-07-22T11:43:59;99286.13;;;38.49;35.33
11830;BME280;5972;42.134;24.718;2023-07-22T11:46:27;99283.94;;;38.81;35.45
11830;BME280;5972;42.134;24.718;2023-07-22T11:48:55;99283.50;;;39.17;34.39
11830;BME280;5972;42.134;24.718;2023-07-22T11:51:24;99272.50;;;39.26;33.90
11830;BME280;5972;42.134;24.718;2023-07-22T12:16:20;99264.22;;;37.54;37.10
11830;BME280;5972;42.134;24.718;2023-07-22T12:18:47;99258.31;;;37.57;36.08
11830;BME280;5972;42.134;24.718;2023-07-22T12:21:14;99237.78;;;37.88;35.62
11830;BME280;5972;42.134;24.718;2023-07-22T12:23:41;99260.66;;;37.72;36.17
11830;BME280;5972;42.134;24.718;2023-07-22T12:26:08;99257.16;;;37.66;35.81
11830;BME280;5972;42.134;24.718;2023-07-22T12:28:35;99252.47;;;37.68;36.37
11830;BME280;5972;42.134;24.718;2023-07-22T12:31:02;99245.25;;;38.05;35.57
11830;BME280;5972;42.134;24.718;2023-07-22T12:33:31;99239.44;;;37.65;35.67
11830;BME280;5972;42.134;24.718;2023-07-22T12:35:58;99235.16;;;38.09;34.79
11830;BME280;5972;42.134;24.718;2023-07-22T12:38:25;99243.34;;;37.94;34.04
11830;BME280;5972;42.134;24.718;2023-07-22T12:40:51;99236.16;;;38.25;33.74
11830;BME280;5972;42.134;24.718;2023-07-22T12:43:18;99225.59;;;38.25;33.80
11830;BME280;5972;42.134;24.718;2023-07-22T12:45:45;99221.16;;;38.30;34.20
11830;BME280;5972;42.134;24.718;2023-07-22T12:48:12;99235.72;;;38.21;33.48
11830;BME280;5972;42.134;24.718;2023-07-22T12:50:40;99225.38;;;38.10;33.83
11830;BME280;5972;42.134;24.718;2023-07-22T12:53:07;99223.53;;;38.26;33.49
11830;BME280;5972;42.134;24.718;2023-07-22T12:55:34;99213.56;;;38.51;32.46
11830;BME280;5972;42.134;24.718;2023-07-22T12:58:01;99210.75;;;38.78;32.35
11830;BME280;5972;42.134;24.718;2023-07-22T13:00:28;99196.06;;;38.92;32.26
11830;BME280;5972;42.134;24.718;2023-07-22T13:02:55;99200.94;;;38.92;32.09
11830;BME280;5972;42.134;24.718;2023-07-22T13:05:23;99203.75;;;39.05;31.79
11830;BME280;5972;42.134;24.718;2023-07-22T13:07:51;99204.84;;;38.89;31.91
11830;BME280;5972;42.134;24.718;2023-07-22T13:10:22;99201.88;;;39.07;31.74
11830;BME280;5972;42.134;24.718;2023-07-22T13:12:50;99198.28;;;39.07;31.93
11830;BME280;5972;42.134;24.718;2023-07-22T13:15:17;99199.31;;;38.96;32.53
11830;BME280;5972;42.134;24.718;2023-07-22T13:17:44;99193.06;;;39.11;32.02
11830;BME280;5972;42.134;24.718;2023-07-22T13:20:11;99194.22;;;39.29;32.24
11830;BME280;5972;42.134;24.718;2023-07-22T13:22:38;99189.09;;;39.27;32.77